Time;durP1;ratioP1;P1;durP2;ratioP2;P2;SDS_P1;SDS_P2;PMS_P1;PMS_P2;Temp;Humidity;BMP_temperature;BMP_pressure;BME280_temperature;BME280_humidity;BME280_pressure;Samples;Min_cycle;Max_cycle;Signal;HPM_P1;HPM_P2
2022/05/17 00:00:44;;;;;;;2.78;2.28;;;22.10;54.50;;;;;;5067103;28;45856;-60
2022/05/17 00:03:13;;;;;;;3.08;2.55;;;22.10;53.80;;;;;;5066985;28;43532;-61
2022/05/17 00:05:45;;;;;;;2.50;2.30;;;22.10;53.80;;;;;;5067185;28;43495;-61
2022/05/17 00:08:14;;;;;;;2.72;2.42;;;22.00;53.80;;;;;;5066109;28;43454;-61
2022/05/17 00:10:42;;;;;;;3.08;2.45;;;22.10;53.90;;;;;;5066522;28;43824;-61
2022/05/17 00:13:10;;;;;;;3.03;2.33;;;22.00;53.80;;;;;;5066578;28;43612;-61
2022/05/17 00:15:48;;;;;;;2.63;2.20;;;22.00;53.80;;;;;;5066889;28;43460;-60
2022/05/17 00:18:17;;;;;;;3.03;2.38;;;22.00;53.80;;;;;;5067292;28;43416;-61
2022/05/17 00:20:45;;;;;;;2.72;2.20;;;22.00;53.80;;;;;;5072192;27;44681;-61
2022/05/17 00:23:15;;;;;;;2.45;2.22;;;22.00;53.80;;;;;;5066610;28;43901;-61
2022/05/17 00:25:47;;;;;;;2.30;2.10;;;22.00;53.80;;;;;;5066780;28;43549;-61
2022/05/17 00:28:16;;;;;;;2.38;2.15;;;22.00;53.80;;;;;;5068819;28;44031;-61
2022/05/17 00:30:44;;;;;;;2.20;2.00;;;22.00;53.80;;;;;;5080720;27;44723;-61
2022/05/17 00:33:11;;;;;;;2.88;2.17;;;22.00;53.80;;;;;;5066829;28;43732;-61
2022/05/17 00:35:39;;;;;;;3.17;2.10;;;22.00;53.80;;;;;;5066870;28;43439;-61
2022/05/17 00:38:06;;;;;;;2.42;2.22;;;21.90;53.80;;;;;;5068043;28;43526;-61
2022/05/17 00:40:34;;;;;;;2.92;2.10;;;21.90;53.80;;;;;;5066345;28;43755;-61
2022/05/17 00:43:12;;;;;;;3.17;2.30;;;21.90;53.80;;;;;;5066545;28;44008;-61
2022/05/17 00:45:47;;;;;;;2.25;2.03;;;21.90;53.80;;;;;;5062294;28;43467;-61
2022/05/17 00:48:16;;;;;;;3.15;2.20;;;21.90;53.80;;;;;;5063970;28;43413;-61
2022/05/17 00:50:48;;;;;;;2.80;1.95;;;21.90;53.80;;;;;;5066186;28;44706;-61
2022/05/17 00:53:24;;;;;;;2.60;2.20;;;21.90;53.80;;;;;;5063258;28;43494;-61
2022/05/17 00:55:58;;;;;;;2.08;1.92;;;21.90;53.80;;;;;;5066888;28;43501;-60
2022/05/17 00:58:28;;;;;;;2.88;2.30;;;21.90;53.80;;;;;;5065931;28;43524;-61
2022/05/17 01:01:04;;;;;;;2.35;2.10;;;21.80;53.80;;;;;;5066116;28;44047;-61
2022/05/17 01:03:43;;;;;;;2.20;2.00;;;21.80;53.80;;;;;;5067904;28;43460;-61
2022/05/17 01:06:11;;;;;;;2.67;2.33;;;21.90;53.80;;;;;;5070127;28;43521;-61
2022/05/17 01:08:39;;;;;;;3.00;2.10;;;21.80;53.80;;;;;;5070086;28;43389;-61
2022/05/17 01:11:06;;;;;;;2.50;2.17;;;21.80;53.80;;;;;;5069752;28;44970;-61
2022/05/17 01:16:20;;;;;;;2.33;2.03;;;21.80;53.90;;;;;;5069697;28;43508;-60
2022/05/17 01:18:49;;;;;;;2.78;2.10;;;21.80;53.80;;;;;;5069297;28;43487;-61
2022/05/17 01:21:16;;;;;;;3.55;2.40;;;21.80;53.80;;;;;;5069479;28;43999;-60
2022/05/17 01:23:44;;;;;;;2.67;2.08;;;21.80;53.80;;;;;;5068251;28;43720;-61
2022/05/17 01:26:20;;;;;;;2.28;2.08;;;21.80;53.90;;;;;;5069254;28;43468;-61
2022/05/17 01:28:48;;;;;;;2.47;2.10;;;21.80;53.80;;;;;;5069651;28;43465;-61
2022/05/17 01:31:17;;;;;;;3.38;2.20;;;21.70;53.80;;;;;;5069254;28;43560;-60
2022/05/17 01:33:44;;;;;;;2.25;1.83;;;21.70;53.80;;;;;;5066027;28;43994;-61
2022/05/17 01:36:15;;;;;;;2.53;2.05;;;21.70;53.80;;;;;;5071617;28;43528;-61
2022/05/17 01:38:50;;;;;;;3.08;2.28;;;21.70;53.90;;;;;;5068216;28;43485;-61
2022/05/17 01:41:19;;;;;;;2.33;2.00;;;21.70;53.90;;;;;;5066886;28;43792;-61
2022/05/17 01:43:50;;;;;;;2.53;1.88;;;21.70;53.80;;;;;;5069692;28;43703;-61
2022/05/17 01:46:20;;;;;;;2.65;1.95;;;21.70;53.90;;;;;;5068873;28;43470;-62
2022/05/17 01:48:48;;;;;;;2.13;1.90;;;21.70;53.90;;;;;;5069198;28;43457;-60
2022/05/17 01:51:16;;;;;;;3.15;1.92;;;21.70;53.90;;;;;;5065607;28;44701;-61
2022/05/17 01:53:43;;;;;;;2.88;2.20;;;21.70;53.90;;;;;;5068884;28;43432;-61
2022/05/17 01:56:11;;;;;;;2.53;1.90;;;21.70;53.90;;;;;;5068918;28;43448;-61
2022/05/17 01:58:38;;;;;;;2.40;1.98;;;21.70;53.90;;;;;;5070500;28;43464;-61
2022/05/17 02:01:08;;;;;;;2.53;2.00;;;21.60;53.90;;;;;;5068305;27;43907;-61
2022/05/17 02:03:36;;;;;;;3.42;2.17;;;21.60;53.90;;;;;;5068795;28;43489;-61
2022/05/17 02:06:03;;;;;;;2.65;2.05;;;21.60;53.90;;;;;;5062744;28;43399;-61
2022/05/17 02:08:31;;;;;;;3.35;1.90;;;21.60;53.90;;;;;;5070526;28;43438;-61
2022/05/17 02:10:58;;;;;;;3.30;2.47;;;21.60;53.90;;;;;;5068603;28;43798;-60
2022/05/17 02:13:26;;;;;;;3.20;2.20;;;21.60;53.90;;;;;;5068652;28;43482;-61
2022/05/17 02:15:53;;;;;;;2.75;1.98;;;21.60;53.90;;;;;;5067867;27;43371;-61
2022/05/17 02:18:21;;;;;;;2.80;1.90;;;21.60;53.90;;;;;;5069025;28;43516;-61
2022/05/17 02:20:49;;;;;;;2.40;1.88;;;21.60;53.90;;;;;;5067858;28;43798;-61
2022/05/17 02:23:16;;;;;;;2.65;2.10;;;21.60;53.90;;;;;;5068313;28;44068;-61
2022/05/17 02:25:44;;;;;;;3.25;1.90;;;21.60;53.90;;;;;;5068569;28;43446;-61
2022/05/17 02:28:11;;;;;;;2.88;2.05;;;21.60;53.90;;;;;;5070595;28;43426;-61
2022/05/17 02:30:41;;;;;;;2.60;1.90;;;21.60;53.90;;;;;;5069268;27;44706;-60
2022/05/17 02:33:10;;;;;;;2.00;1.83;;;21.60;53.90;;;;;;5068319;28;43685;-60
2022/05/17 02:35:37;;;;;;;3.03;1.95;;;21.60;53.90;;;;;;5076951;28;43422;-61
2022/05/17 02:38:05;;;;;;;2.97;2.13;;;21.50;53.90;;;;;;5069908;27;43438;-60
2022/05/17 02:40:34;;;;;;;2.47;1.80;;;21.50;53.90;;;;;;5068222;28;44806;-61
2022/05/17 02:43:01;;;;;;;2.50;1.90;;;21.50;53.90;;;;;;5068115;28;43999;-61
2022/05/17 02:45:30;;;;;;;4.43;2.00;;;21.50;53.90;;;;;;5067258;28;43469;-61
2022/05/17 02:47:57;;;;;;;3.03;1.95;;;21.50;53.90;;;;;;5067665;28;43503;-60
2022/05/17 02:50:25;;;;;;;2.42;1.90;;;21.50;53.90;;;;;;5068658;28;43811;-61
2022/05/17 02:52:53;;;;;;;2.47;1.95;;;21.50;53.90;;;;;;5068008;28;43979;-61
2022/05/17 02:55:21;;;;;;;2.85;1.70;;;21.50;53.90;;;;;;5066921;28;43533;-61
2022/05/17 02:57:49;;;;;;;2.55;1.90;;;21.50;54.00;;;;;;5068769;28;43459;-61
2022/05/17 03:00:17;;;;;;;3.00;1.88;;;21.50;54.00;;;;;;5068207;28;44031;-61
2022/05/17 03:02:44;;;;;;;2.33;1.70;;;21.50;53.90;;;;;;5058709;28;43729;-61
2022/05/17 03:05:13;;;;;;;2.83;1.77;;;21.50;54.00;;;;;;5066022;28;43475;-61
2022/05/17 03:07:41;;;;;;;2.75;2.00;;;21.50;53.90;;;;;;5070732;28;43584;-60
2022/05/17 03:10:11;;;;;;;2.47;1.90;;;21.40;53.90;;;;;;5067548;28;44799;-61
2022/05/17 03:12:40;;;;;;;2.60;2.00;;;21.40;53.90;;;;;;5067524;28;43653;-61
2022/05/17 03:15:09;;;;;;;3.05;1.95;;;21.40;53.90;;;;;;5065046;28;43410;-62
2022/05/17 03:17:36;;;;;;;2.25;1.70;;;21.40;53.90;;;;;;5065941;28;43446;-60
2022/05/17 03:20:04;;;;;;;3.40;2.40;;;21.40;54.00;;;;;;5065721;28;44069;-61
2022/05/17 03:22:33;;;;;;;3.05;1.73;;;21.40;53.90;;;;;;5059310;28;43453;-61
2022/05/17 03:25:00;;;;;;;3.13;2.00;;;21.40;53.90;;;;;;5067753;28;43447;-60
2022/05/17 03:27:47;;;;;;;2.88;1.88;;;21.40;53.90;;;;;;5067365;28;43621;-61
2022/05/17 03:30:15;;;;;;;3.17;1.90;;;21.40;53.90;;;;;;5058198;28;43869;-60
2022/05/17 03:32:42;;;;;;;2.20;1.95;;;21.40;53.90;;;;;;5065684;28;43435;-61
2022/05/17 03:35:11;;;;;;;2.42;1.92;;;21.40;54.00;;;;;;5071942;28;43419;-61
2022/05/17 03:37:38;;;;;;;2.00;1.80;;;21.40;54.00;;;;;;5068091;28;43462;-61
2022/05/17 03:40:09;;;;;;;3.05;2.20;;;21.40;54.00;;;;;;5066975;28;43944;-60
2022/05/17 03:42:38;;;;;;;2.53;2.05;;;21.40;54.00;;;;;;5063648;28;45048;-61
2022/05/17 03:45:07;;;;;;;2.20;1.73;;;21.40;54.00;;;;;;5068733;28;43430;-61
2022/05/17 03:47:34;;;;;;;2.33;1.73;;;21.30;53.90;;;;;;5066403;28;43462;-61
2022/05/17 03:50:02;;;;;;;3.35;1.92;;;21.40;54.00;;;;;;5063837;28;44644;-61
2022/05/17 03:52:31;;;;;;;2.53;2.00;;;21.40;54.00;;;;;;5059151;28;43631;-61
2022/05/17 03:55:00;;;;;;;2.17;1.60;;;21.40;53.90;;;;;;5067961;28;43482;-61
2022/05/17 03:57:28;;;;;;;2.95;1.80;;;21.30;53.90;;;;;;5067222;28;43482;-61
2022/05/17 03:59:56;;;;;;;2.45;1.70;;;21.30;53.90;;;;;;5065818;28;43885;-61
2022/05/17 04:02:24;;;;;;;3.58;2.00;;;21.30;53.90;;;;;;5066759;28;43626;-61
2022/05/17 04:04:55;;;;;;;3.67;1.90;;;21.30;54.00;;;;;;5069436;27;43403;-61
2022/05/17 04:07:23;;;;;;;2.72;1.92;;;21.30;54.00;;;;;;5067097;28;43375;-61
2022/05/17 04:09:50;;;;;;;1.85;1.70;;;21.30;53.90;;;;;;5064549;28;44788;-61
2022/05/17 04:12:18;;;;;;;3.05;2.15;;;21.30;53.90;;;;;;5067444;28;43703;-61
2022/05/17 04:14:45;;;;;;;4.30;1.70;;;21.30;53.90;;;;;;5068792;27;43416;-61
2022/05/17 04:17:13;;;;;;;2.58;1.88;;;21.30;53.90;;;;;;5066992;28;43477;-61
2022/05/17 04:19:40;;;;;;;2.65;1.95;;;21.30;53.90;;;;;;5065381;28;44088;-61
2022/05/17 04:22:11;;;;;;;3.03;2.00;;;21.30;53.90;;;;;;5067846;27;43432;-61
2022/05/17 04:24:41;;;;;;;2.95;1.80;;;21.30;53.90;;;;;;5068640;27;44258;-61
2022/05/17 04:27:12;;;;;;;2.17;1.70;;;21.30;54.00;;;;;;5065349;28;43509;-61
2022/05/17 04:29:39;;;;;;;3.83;2.00;;;21.30;54.00;;;;;;5066889;28;43808;-61
2022/05/17 04:32:07;;;;;;;3.50;2.00;;;21.30;54.00;;;;;;5068608;28;43461;-61
2022/05/17 04:34:35;;;;;;;1.60;1.50;;;21.20;53.90;;;;;;5067381;28;43448;-61
2022/05/17 04:37:03;;;;;;;3.42;1.90;;;21.20;53.90;;;;;;5054401;28;43466;-61
2022/05/17 04:39:32;;;;;;;4.30;1.90;;;21.20;53.90;;;;;;5071603;28;46247;-61
2022/05/17 04:42:00;;;;;;;2.60;1.80;;;21.30;53.90;;;;;;5075593;28;43476;-61
2022/05/17 04:44:28;;;;;;;1.85;1.60;;;21.30;54.00;;;;;;5073444;28;43393;-61
2022/05/17 04:46:55;;;;;;;4.20;1.60;;;21.20;54.00;;;;;;5071707;28;43544;-61
2022/05/17 04:49:23;;;;;;;2.08;1.70;;;21.20;53.90;;;;;;5067719;28;45166;-61
2022/05/17 04:51:52;;;;;;;3.50;1.77;;;21.20;54.00;;;;;;5075290;28;44161;-61
2022/05/17 04:54:20;;;;;;;3.33;1.60;;;21.20;54.00;;;;;;5071768;28;43504;-61
2022/05/17 04:56:48;;;;;;;3.05;1.67;;;21.20;54.00;;;;;;5073160;28;43484;-61
2022/05/17 04:59:22;;;;;;;3.35;2.10;;;21.20;54.00;;;;;;5069088;28;44963;-62
2022/05/17 05:01:49;;;;;;;2.45;1.67;;;21.20;54.00;;;;;;5070760;28;43479;-61
2022/05/17 05:04:17;;;;;;;3.40;2.03;;;21.20;54.00;;;;;;5069898;28;43425;-61
2022/05/17 05:06:44;;;;;;;2.30;1.58;;;21.20;54.00;;;;;;5068990;28;43567;-61
2022/05/17 05:09:13;;;;;;;2.15;1.60;;;21.20;54.10;;;;;;5072979;28;45771;-62
2022/05/17 05:11:41;;;;;;;1.90;1.67;;;21.20;54.00;;;;;;5071213;28;43435;-61
2022/05/17 05:14:09;;;;;;;2.90;2.05;;;21.20;54.00;;;;;;5072875;28;43479;-61
2022/05/17 05:16:37;;;;;;;2.45;1.90;;;21.10;54.00;;;;;;5072687;28;43510;-61
2022/05/17 05:19:05;;;;;;;2.45;1.65;;;21.10;54.00;;;;;;5072803;28;43779;-61
2022/05/17 05:21:32;;;;;;;2.60;1.60;;;21.10;54.00;;;;;;5072140;28;43846;-61
2022/05/17 05:24:01;;;;;;;2.72;1.90;;;21.20;54.00;;;;;;5072785;28;43470;-62
2022/05/17 05:26:28;;;;;;;3.50;1.60;;;21.10;54.00;;;;;;5072590;28;43466;-61
2022/05/17 05:28:55;;;;;;;1.95;1.60;;;21.10;54.00;;;;;;5073136;28;43829;-61
2022/05/17 05:31:23;;;;;;;2.15;1.55;;;21.10;54.00;;;;;;5072582;27;44088;-61
2022/05/17 05:33:51;;;;;;;2.92;1.58;;;21.10;54.00;;;;;;5072811;28;43423;-61
2022/05/17 05:36:18;;;;;;;2.17;1.58;;;21.10;54.00;;;;;;5073969;28;43564;-61
2022/05/17 05:38:46;;;;;;;2.10;1.50;;;21.10;54.00;;;;;;5072929;28;43813;-61
2022/05/17 05:41:14;;;;;;;2.05;1.50;;;21.10;54.00;;;;;;5071580;28;43675;-61
2022/05/17 05:43:41;;;;;;;2.10;1.50;;;21.10;54.00;;;;;;5072382;28;43459;-61
2022/05/17 05:46:10;;;;;;;1.85;1.60;;;21.10;54.70;;;;;;5072579;28;43442;-60
2022/05/17 05:48:37;;;;;;;2.35;1.42;;;21.10;54.10;;;;;;5072755;28;44342;-61
2022/05/17 05:51:06;;;;;;;2.35;1.60;;;21.10;54.70;;;;;;5066894;28;44014;-60
2022/05/17 05:53:33;;;;;;;1.63;1.52;;;21.10;54.10;;;;;;5068663;28;43536;-60
2022/05/17 05:56:05;;;;;;;1.95;1.48;;;21.10;54.10;;;;;;5069205;28;43461;-61
2022/05/17 05:58:36;;;;;;;1.88;1.42;;;21.10;54.10;;;;;;5068718;28;44146;-61
2022/05/17 06:01:03;;;;;;;1.97;1.40;;;21.10;54.10;;;;;;5068882;27;43435;-60
2022/05/17 06:03:32;;;;;;;2.40;1.50;;;21.10;54.10;;;;;;5068310;28;43455;-61
2022/05/17 06:06:00;;;;;;;3.20;2.08;;;21.10;54.10;;;;;;5062943;28;43449;-60
2022/05/17 06:08:28;;;;;;;3.13;1.60;;;21.10;54.10;;;;;;5070256;28;44214;-61
2022/05/17 06:10:56;;;;;;;2.83;1.48;;;21.10;54.10;;;;;;5068293;28;43460;-61
2022/05/17 06:13:23;;;;;;;2.40;1.90;;;21.10;54.10;;;;;;5068879;28;43438;-61
2022/05/17 06:15:52;;;;;;;1.67;1.38;;;21.10;54.10;;;;;;5068364;28;43522;-60
2022/05/17 06:18:20;;;;;;;2.65;1.60;;;21.10;54.20;;;;;;5070858;28;45003;-61
2022/05/17 06:20:55;;;;;;;1.20;1.10;;;21.10;54.20;;;;;;5072308;28;43467;-61
2022/05/17 06:23:25;;;;;;;1.52;1.33;;;21.10;54.20;;;;;;5066013;28;43472;-61
2022/05/17 06:25:53;;;;;;;2.25;1.50;;;21.10;54.30;;;;;;5068892;28;43411;-61
2022/05/17 06:28:21;;;;;;;2.45;1.30;;;21.10;54.20;;;;;;5068201;28;44703;-61
2022/05/17 06:30:48;;;;;;;2.22;1.52;;;21.10;54.60;;;;;;5067724;28;43453;-61
2022/05/17 06:33:16;;;;;;;1.88;1.50;;;21.10;54.40;;;;;;5068485;28;43469;-61
2022/05/17 06:35:48;;;;;;;1.98;1.50;;;21.10;54.30;;;;;;5077915;28;43547;-61
2022/05/17 06:38:17;;;;;;;2.17;1.42;;;21.10;54.40;;;;;;5067788;28;45079;-61
2022/05/17 06:40:44;;;;;;;1.80;1.38;;;21.10;54.40;;;;;;5083616;27;43495;-61
2022/05/17 06:43:12;;;;;;;1.40;1.30;;;21.10;54.40;;;;;;5060933;28;43475;-61
2022/05/17 06:45:40;;;;;;;2.28;1.25;;;21.10;54.50;;;;;;5064925;28;43451;-60
2022/05/17 06:48:07;;;;;;;1.38;1.15;;;21.10;54.40;;;;;;5065982;28;43760;-61
2022/05/17 06:50:36;;;;;;;2.60;1.40;;;21.10;54.70;;;;;;5068181;28;43747;-61
2022/05/17 06:53:07;;;;;;;2.15;1.40;;;21.10;54.50;;;;;;5067925;28;43507;-60
2022/05/17 06:55:37;;;;;;;1.73;1.38;;;21.10;54.50;;;;;;5064245;28;43501;-61
2022/05/17 06:58:05;;;;;;;1.55;1.45;;;21.10;54.50;;;;;;5067844;28;45631;-60
2022/05/17 07:00:32;;;;;;;2.33;1.35;;;21.10;54.50;;;;;;5068000;28;43371;-61
2022/05/17 07:03:00;;;;;;;1.88;1.60;;;21.10;54.50;;;;;;5067379;28;43515;-61
2022/05/17 07:05:29;;;;;;;2.53;1.52;;;21.10;54.50;;;;;;5067500;28;43650;-61
2022/05/17 07:08:00;;;;;;;2.70;1.42;;;21.10;54.80;;;;;;5068739;28;44952;-60
2022/05/17 07:13:14;;;;;;;3.55;1.70;;;21.10;54.70;;;;;;5067471;28;43464;-61
2022/05/17 07:15:47;;;;;;;2.78;1.52;;;21.10;54.70;;;;;;5067364;28;43471;-61
2022/05/17 07:18:17;;;;;;;2.33;1.33;;;21.10;54.80;;;;;;5065549;28;44934;-61
2022/05/17 07:20:45;;;;;;;3.28;1.60;;;21.10;54.70;;;;;;5067297;28;43968;-61
2022/05/17 07:23:14;;;;;;;2.85;1.42;;;21.10;54.80;;;;;;5068840;28;43442;-61
2022/05/17 07:25:44;;;;;;;2.97;1.65;;;21.10;54.90;;;;;;5067039;28;43481;-60
2022/05/17 07:28:19;;;;;;;2.28;1.30;;;21.10;55.40;;;;;;5067453;28;44679;-61
2022/05/17 07:30:47;;;;;;;2.15;1.40;;;21.10;54.80;;;;;;5067476;28;43477;-61
2022/05/17 07:33:15;;;;;;;3.05;1.60;;;21.10;54.90;;;;;;5068464;27;43406;-60
2022/05/17 07:35:43;;;;;;;4.20;1.50;;;21.10;54.80;;;;;;5068179;28;43584;-61
2022/05/17 07:38:11;;;;;;;2.95;1.40;;;21.10;54.90;;;;;;5062016;28;45007;-61
2022/05/17 07:40:39;;;;;;;2.17;1.27;;;21.20;55.00;;;;;;5065113;28;43677;-61
2022/05/17 07:43:06;;;;;;;2.38;1.60;;;21.20;54.90;;;;;;5066773;28;43392;-61
2022/05/17 07:45:34;;;;;;;1.77;1.27;;;21.20;55.00;;;;;;5067010;28;43534;-60
2022/05/17 07:48:02;;;;;;;3.28;1.35;;;21.20;55.00;;;;;;5067300;28;43808;-60
2022/05/17 07:50:29;;;;;;;1.88;1.40;;;21.20;54.90;;;;;;5066305;28;43474;-61
2022/05/17 07:52:57;;;;;;;3.17;1.65;;;21.20;55.00;;;;;;5069797;27;43414;-60
2022/05/17 07:55:25;;;;;;;1.60;1.20;;;21.10;54.90;;;;;;5066220;28;43511;-61
2022/05/17 07:57:52;;;;;;;1.67;1.38;;;21.20;55.00;;;;;;5059465;28;43881;-61
2022/05/17 08:00:20;;;;;;;1.85;1.30;;;21.10;54.90;;;;;;5066790;28;43388;-61
2022/05/17 08:02:47;;;;;;;1.55;1.30;;;21.20;55.20;;;;;;5068305;28;43483;-60
2022/05/17 08:05:15;;;;;;;2.15;1.05;;;21.10;55.10;;;;;;5067009;28;43632;-60
2022/05/17 08:07:43;;;;;;;2.65;1.60;;;21.10;55.10;;;;;;5066596;28;44975;-60
2022/05/17 08:10:10;;;;;;;2.03;1.38;;;21.20;55.00;;;;;;5066815;28;43457;-61
2022/05/17 08:12:38;;;;;;;2.28;1.50;;;21.10;55.70;;;;;;5069297;27;43367;-60
2022/05/17 08:15:07;;;;;;;2.15;1.30;;;21.20;55.30;;;;;;5081742;27;43589;-61
2022/05/17 08:17:35;;;;;;;2.60;1.50;;;21.20;55.30;;;;;;5066644;28;44699;-60
2022/05/17 08:20:07;;;;;;;3.08;1.83;;;21.20;55.20;;;;;;5064666;28;44025;-60
2022/05/17 08:22:40;;;;;;;1.90;1.52;;;21.20;55.30;;;;;;5068030;28;43589;-60
2022/05/17 08:27:57;;;;;;;2.80;1.40;;;21.20;55.30;;;;;;5067170;28;45211;-60
2022/05/17 08:30:26;;;;;;;1.42;1.08;;;21.20;55.30;;;;;;5066374;28;44306;-61
2022/05/17 08:33:15;;;;;;;2.00;1.20;;;21.20;55.10;;;;;;5066509;28;43436;-61
2022/05/17 08:35:50;;;;;;;3.30;1.38;;;21.30;55.10;;;;;;5074878;28;43562;-61
2022/05/17 08:38:30;;;;;;;1.50;1.05;;;21.30;55.20;;;;;;5064447;28;44708;-60
2022/05/17 08:41:07;;;;;;;2.35;1.40;;;21.30;55.30;;;;;;5066241;28;43685;-61
2022/05/17 08:43:43;;;;;;;3.08;1.30;;;21.30;55.30;;;;;;5064679;28;43478;-61
2022/05/17 08:46:17;;;;;;;1.70;1.30;;;21.30;55.20;;;;;;5060343;28;43498;-61
2022/05/17 08:48:53;;;;;;;2.90;1.30;;;21.30;55.30;;;;;;5062864;28;45026;-60
2022/05/17 08:51:34;;;;;;;2.15;1.30;;;21.40;55.10;;;;;;5059079;28;43827;-60
2022/05/17 08:54:05;;;;;;;2.33;1.33;;;21.40;55.40;;;;;;5064709;28;43432;-60
2022/05/17 08:56:41;;;;;;;2.70;1.38;;;21.40;55.10;;;;;;5066142;28;43459;-60
2022/05/17 08:59:18;;;;;;;1.25;1.05;;;21.40;55.10;;;;;;5062097;28;43807;-60
2022/05/17 09:02:16;;;;;;;1.92;1.27;;;21.50;54.90;;;;;;5068823;28;43909;-61
2022/05/17 09:05:11;;;;;;;3.58;1.23;;;21.50;54.80;;;;;;5064373;28;43583;-61
2022/05/17 09:07:54;;;;;;;2.33;1.20;;;21.50;54.80;;;;;;5069407;28;43481;-61
2022/05/17 09:10:31;;;;;;;1.42;1.30;;;21.50;54.90;;;;;;5063605;28;43794;-61
2022/05/17 09:13:15;;;;;;;2.55;1.30;;;21.50;54.90;;;;;;5066596;28;44023;-60
2022/05/17 09:15:44;;;;;;;1.50;1.10;;;21.60;54.90;;;;;;5066508;28;43423;-60
2022/05/17 09:18:16;;;;;;;1.65;1.20;;;21.60;55.00;;;;;;5066414;28;43534;-60
2022/05/17 09:20:44;;;;;;;2.42;1.42;;;21.60;54.90;;;;;;5065484;28;43796;-60
2022/05/17 09:23:13;;;;;;;1.63;1.20;;;21.60;55.00;;;;;;5067836;28;44048;-61
2022/05/17 09:25:46;;;;;;;2.17;1.15;;;21.70;55.20;;;;;;5068090;28;43627;-60
2022/05/17 09:28:59;;;;;;;2.17;1.20;;;21.70;55.10;;;;;;5069815;28;43592;-61
2022/05/17 09:31:32;;;;;;;1.60;1.20;;;21.70;55.00;;;;;;5047822;28;43781;-60
2022/05/17 09:34:02;;;;;;;2.65;1.30;;;21.70;55.20;;;;;;5069147;28;43738;-60
2022/05/17 09:36:42;;;;;;;1.90;1.13;;;21.70;54.80;;;;;;5070102;28;43588;-60
2022/05/17 09:39:11;;;;;;;1.48;1.08;;;21.80;55.10;;;;;;5067713;28;44029;-60
2022/05/17 09:41:41;;;;;;;2.20;1.05;;;21.70;55.00;;;;;;5055030;28;43784;-60
2022/05/17 09:44:30;;;;;;;2.05;1.17;;;21.70;55.00;;;;;;5068134;28;43649;-60
2022/05/17 09:47:00;;;;;;;2.08;1.30;;;21.80;55.00;;;;;;5067663;28;43524;-61
2022/05/17 09:52:34;;;;;;;1.90;1.20;;;21.80;55.00;;;;;;5068837;28;43802;-61
2022/05/17 09:55:21;;;;;;;2.00;1.00;;;21.80;54.90;;;;;;5070590;27;43480;-61
2022/05/17 09:58:03;;;;;;;2.20;1.25;;;21.80;54.90;;;;;;5060694;28;43398;-61
2022/05/17 10:00:47;;;;;;;2.15;1.48;;;21.80;54.90;;;;;;5069557;28;43524;-61
2022/05/17 10:03:15;;;;;;;3.38;1.20;;;21.80;54.80;;;;;;5069544;28;43772;-60
2022/05/17 10:06:00;;;;;;;1.98;1.40;;;21.90;54.90;;;;;;5068819;28;43421;-61
2022/05/17 10:08:34;;;;;;;1.33;1.23;;;21.90;54.90;;;;;;5068999;28;43454;-60
2022/05/17 10:11:12;;;;;;;1.63;1.42;;;21.90;55.00;;;;;;5069278;28;43438;-61
2022/05/17 10:14:21;;;;;;;1.67;1.40;;;21.90;54.90;;;;;;5073754;28;43799;-60
2022/05/17 10:17:13;;;;;;;2.95;1.98;;;21.90;54.90;;;;;;5067902;28;43939;-60
2022/05/17 10:20:11;;;;;;;1.85;1.65;;;21.90;54.90;;;;;;5067405;28;43426;-60
2022/05/17 10:22:59;;;;;;;1.33;1.23;;;21.90;54.90;;;;;;5069456;28;43464;-60
2022/05/17 10:25:56;;;;;;;2.35;1.73;;;21.90;54.80;;;;;;5061091;28;43996;-60
2022/05/17 10:28:52;;;;;;;3.35;1.70;;;21.90;54.70;;;;;;5067554;28;43613;-60
2022/05/17 10:31:43;;;;;;;2.08;1.88;;;21.90;54.80;;;;;;5068502;28;43411;-60
2022/05/17 10:34:32;;;;;;;2.85;1.95;;;21.90;54.90;;;;;;5070611;28;43494;-60
2022/05/17 10:37:09;;;;;;;3.38;1.88;;;22.00;54.90;;;;;;5075315;27;43816;-60
2022/05/17 10:39:45;;;;;;;2.92;1.80;;;22.00;54.90;;;;;;5067746;28;43439;-61
2022/05/17 10:42:13;;;;;;;2.10;1.90;;;22.00;55.00;;;;;;5069073;28;43482;-61
2022/05/17 10:44:52;;;;;;;2.65;1.63;;;22.00;55.00;;;;;;5067782;28;43461;-60
2022/05/17 10:47:25;;;;;;;2.38;1.90;;;22.00;54.90;;;;;;5066421;28;44008;-60
2022/05/17 10:50:13;;;;;;;2.13;1.90;;;22.00;55.00;;;;;;5070989;28;43692;-60
2022/05/17 10:53:00;;;;;;;3.25;2.30;;;22.00;55.60;;;;;;5067413;28;43553;-60
2022/05/17 10:55:52;;;;;;;2.88;2.05;;;22.10;55.70;;;;;;5068144;28;43436;-61
2022/05/17 10:58:32;;;;;;;2.67;2.17;;;22.10;54.80;;;;;;5068187;28;44738;-60
2022/05/17 11:01:29;;;;;;;3.00;2.40;;;22.10;54.90;;;;;;5068406;28;43447;-60
2022/05/17 11:04:16;;;;;;;3.38;2.42;;;22.20;54.90;;;;;;5057066;28;43444;-61
2022/05/17 11:07:03;;;;;;;2.92;2.35;;;22.20;54.70;;;;;;5068032;28;43422;-60
2022/05/17 11:09:59;;;;;;;2.88;2.50;;;22.20;54.80;;;;;;5070285;28;44094;-61
2022/05/17 11:12:32;;;;;;;4.95;2.65;;;22.30;54.80;;;;;;5058745;28;43545;-60
2022/05/17 11:15:14;;;;;;;3.72;2.92;;;22.30;54.80;;;;;;5065445;28;43372;-60
2022/05/17 11:17:59;;;;;;;3.45;2.63;;;22.30;54.70;;;;;;5067837;28;43559;-60
2022/05/17 11:20:39;;;;;;;3.03;2.70;;;22.30;54.60;;;;;;5067501;28;44320;-60
2022/05/17 11:23:34;;;;;;;3.25;2.70;;;22.30;54.70;;;;;;5063095;28;43465;-60
2022/05/17 11:26:24;;;;;;;3.20;2.67;;;22.40;54.70;;;;;;5059361;28;43501;-60
2022/05/17 11:28:54;;;;;;;3.47;2.77;;;22.40;54.70;;;;;;5064914;28;43480;-60
2022/05/17 11:31:53;;;;;;;3.80;2.63;;;22.40;54.60;;;;;;5069303;27;44646;-61
2022/05/17 11:34:26;;;;;;;3.83;2.60;;;22.50;55.20;;;;;;5067495;28;43371;-61
2022/05/17 11:37:05;;;;;;;3.60;2.75;;;22.50;54.60;;;;;;5069339;28;44062;-60
2022/05/17 11:39:37;;;;;;;2.97;2.55;;;22.50;55.00;;;;;;5066405;28;43512;-60
2022/05/17 11:42:26;;;;;;;3.22;2.70;;;22.50;54.70;;;;;;5065340;28;45023;-61
2022/05/17 11:44:56;;;;;;;2.75;2.55;;;22.50;54.60;;;;;;5068992;28;43564;-61
2022/05/17 11:47:55;;;;;;;4.60;2.70;;;22.60;54.70;;;;;;5067329;28;43464;-61
2022/05/17 11:50:44;;;;;;;2.70;2.50;;;22.70;54.60;;;;;;5053667;28;43408;-61
2022/05/17 11:53:24;;;;;;;3.63;2.70;;;22.70;54.70;;;;;;5067425;28;44812;-60
2022/05/17 11:56:18;;;;;;;3.80;2.47;;;22.80;54.70;;;;;;5067055;28;44179;-60
2022/05/17 11:58:58;;;;;;;3.03;2.50;;;22.80;54.50;;;;;;5065086;28;43457;-61
2022/05/17 12:01:29;;;;;;;2.95;2.65;;;22.80;54.30;;;;;;5067517;28;43492;-61
2022/05/17 12:04:01;;;;;;;2.60;2.40;;;22.80;54.40;;;;;;5066808;28;44062;-61
2022/05/17 12:06:36;;;;;;;3.55;2.50;;;22.90;54.60;;;;;;5069324;28;43939;-61
2022/05/17 12:09:09;;;;;;;2.90;2.67;;;22.90;54.60;;;;;;5066530;28;43454;-60
2022/05/17 12:11:51;;;;;;;2.97;2.70;;;22.90;54.30;;;;;;5064127;28;43561;-61
2022/05/17 12:14:27;;;;;;;3.93;2.80;;;22.90;54.30;;;;;;5067777;28;44697;-61
2022/05/17 12:16:59;;;;;;;3.03;2.60;;;23.00;54.40;;;;;;5066412;28;43983;-61
2022/05/17 12:19:48;;;;;;;2.90;2.65;;;23.00;54.30;;;;;;5058782;28;43394;-61
2022/05/17 12:22:38;;;;;;;3.22;2.63;;;23.10;54.30;;;;;;5066385;28;43558;-60
2022/05/17 12:25:09;;;;;;;3.13;2.40;;;23.10;54.30;;;;;;5062864;28;43774;-61
2022/05/17 12:27:42;;;;;;;2.78;2.40;;;23.10;54.30;;;;;;5066457;28;44108;-61
2022/05/17 12:33:33;;;;;;;3.72;2.40;;;23.20;54.20;;;;;;5063700;28;43491;-61
2022/05/17 12:36:13;;;;;;;4.22;2.90;;;23.20;54.20;;;;;;5077296;28;44686;-61
2022/05/17 12:44:23;;;;;;;4.00;2.97;;;23.30;55.20;;;;;;5066681;28;43461;-61
2022/05/17 12:46:54;;;;;;;3.20;2.60;;;23.30;54.90;;;;;;5063312;28;43794;-62
2022/05/17 12:49:27;;;;;;;5.35;2.95;;;23.40;54.50;;;;;;5066422;28;43417;-61
2022/05/17 12:51:58;;;;;;;3.13;2.50;;;23.40;54.30;;;;;;5066711;28;43494;-61
2022/05/17 12:54:29;;;;;;;3.17;2.40;;;23.40;54.50;;;;;;5066475;28;43486;-61
2022/05/17 12:57:21;;;;;;;3.47;2.60;;;23.40;54.50;;;;;;5062904;28;45299;-62
2022/05/17 12:59:49;;;;;;;2.72;2.20;;;23.40;54.20;;;;;;5066197;28;44070;-61
2022/05/17 13:02:22;;;;;;;3.55;2.67;;;23.50;54.20;;;;;;5069657;28;43405;-62
2022/05/17 13:04:50;;;;;;;4.13;2.80;;;23.40;54.10;;;;;;5068275;28;43537;-62
2022/05/17 13:07:21;;;;;;;2.50;2.30;;;23.40;54.00;;;;;;5070689;28;43814;-61
2022/05/17 13:09:58;;;;;;;2.95;2.42;;;23.50;54.10;;;;;;5070402;28;43904;-63
2022/05/17 13:12:30;;;;;;;2.63;2.42;;;23.50;54.10;;;;;;5059681;28;43470;-61
2022/05/17 13:14:58;;;;;;;3.22;2.53;;;23.50;54.70;;;;;;5067351;28;43473;-61
2022/05/17 13:17:32;;;;;;;2.40;2.20;;;23.50;54.00;;;;;;5069771;28;43877;-61
2022/05/17 13:20:20;;;;;;;3.55;2.30;;;23.60;54.10;;;;;;5064214;28;44793;-61
2022/05/17 13:22:54;;;;;;;3.05;2.55;;;23.60;54.10;;;;;;5069807;28;43471;-61
2022/05/17 13:25:39;;;;;;;3.20;2.25;;;23.60;54.00;;;;;;5068079;28;43507;-61
2022/05/17 13:28:07;;;;;;;3.35;2.38;;;23.60;54.00;;;;;;5069588;28;43788;-61
2022/05/17 13:30:42;;;;;;;2.80;2.30;;;23.60;54.00;;;;;;5069537;28;43485;-62
2022/05/17 13:33:25;;;;;;;3.10;2.50;;;23.60;54.00;;;;;;5067508;28;43455;-61
2022/05/17 13:36:08;;;;;;;3.13;2.30;;;23.70;54.00;;;;;;5062996;28;43484;-61